createdAt,value
2023-02-21T00:02:39.539Z,99.90
2023-02-21T00:05:24.587Z,99.90
2023-02-21T00:08:09.726Z,99.90
2023-02-21T00:10:54.877Z,99.90
2023-02-21T00:13:39.966Z,99.90
2023-02-21T00:16:25.182Z,99.90
2023-02-21T00:19:10.187Z,99.90
2023-02-21T00:21:55.320Z,99.90
2023-02-21T00:24:40.394Z,99.90
2023-02-21T00:27:25.625Z,99.90
2023-02-21T00:30:10.809Z,99.90
2023-02-21T00:32:56.035Z,99.90
2023-02-21T00:35:41.335Z,99.90
2023-02-21T00:38:26.890Z,99.90
2023-02-21T00:41:12.761Z,99.90
2023-02-21T00:43:58.787Z,99.90
2023-02-21T00:46:43.861Z,99.90
2023-02-21T00:49:28.907Z,99.90
2023-02-21T00:52:14.059Z,99.90
2023-02-21T00:54:59.683Z,99.90
2023-02-21T00:57:44.628Z,99.90
2023-02-21T01:00:34.244Z,99.90
2023-02-21T01:03:19.439Z,99.90
2023-02-21T01:06:04.600Z,99.90
2023-02-21T01:08:50.018Z,99.90
2023-02-21T01:11:36.152Z,99.90
2023-02-21T01:14:21.563Z,99.90
2023-02-21T01:17:12.839Z,99.90
2023-02-21T01:19:58.476Z,99.90
2023-02-21T01:22:43.537Z,99.90
2023-02-21T01:25:28.768Z,99.90
2023-02-21T01:28:14.304Z,99.90
2023-02-21T01:30:59.545Z,99.90
2023-02-21T01:33:44.810Z,99.90
2023-02-21T01:36:30.375Z,99.90
2023-02-21T01:39:15.585Z,99.90
2023-02-21T01:42:00.588Z,99.90
2023-02-21T01:44:49.612Z,99.90
2023-02-21T01:47:35.013Z,99.90
2023-02-21T01:50:22.343Z,99.90
2023-02-21T01:53:07.856Z,99.90
2023-02-21T01:55:54.692Z,99.90
2023-02-21T01:58:41.189Z,99.90
2023-02-21T02:01:28.616Z,99.90
2023-02-21T02:04:14.316Z,99.90
2023-02-21T02:06:59.344Z,99.90
2023-02-21T02:09:44.515Z,99.90
2023-02-21T02:12:26.107Z,99.90
2023-02-21T02:15:11.746Z,99.90
2023-02-21T02:17:38.372Z,99.90
2023-02-21T02:20:04.964Z,99.90
2023-02-21T02:22:38.799Z,99.90
2023-02-21T02:25:05.405Z,99.90
2023-02-21T02:27:44.532Z,99.90
2023-02-21T02:30:17.464Z,99.90
2023-02-21T02:32:53.202Z,99.90
2023-02-21T02:35:19.805Z,99.90
2023-02-21T02:37:46.409Z,99.90
2023-02-21T02:40:33.377Z,99.90
2023-02-21T02:43:18.188Z,99.90
2023-02-21T02:45:48.565Z,99.90
2023-02-21T02:48:18.263Z,99.90
2023-02-21T02:50:46.993Z,99.90
2023-02-21T02:53:16.347Z,99.90
2023-02-21T02:55:48.906Z,99.90
2023-02-21T02:58:15.785Z,99.90
2023-02-21T03:00:45.874Z,99.90
2023-02-21T03:03:15.554Z,99.90
2023-02-21T03:05:57.481Z,99.90
2023-02-21T03:08:31.366Z,99.90
2023-02-21T03:11:13.250Z,99.90
2023-02-21T03:13:46.252Z,99.90
2023-02-21T03:16:15.891Z,99.90
2023-02-21T03:19:01.424Z,99.90
2023-02-21T03:21:29.952Z,99.90
2023-02-21T03:23:57.746Z,99.90
2023-02-21T03:26:26.097Z,99.90
2023-02-21T03:28:53.506Z,99.90
2023-02-21T03:31:23.356Z,99.90
2023-02-21T03:33:50.008Z,99.90
2023-02-21T03:36:16.777Z,99.90
2023-02-21T03:38:43.576Z,99.90
2023-02-21T03:41:12.284Z,99.90
2023-02-21T03:43:39.197Z,99.90
2023-02-21T03:46:05.843Z,99.90
2023-02-21T03:48:32.996Z,99.90
2023-02-21T03:50:59.985Z,99.90
2023-02-21T03:53:26.897Z,99.90
2023-02-21T03:55:53.756Z,99.90
2023-02-21T03:58:20.393Z,99.90
2023-02-21T04:00:47.212Z,99.90
2023-02-21T04:03:14.024Z,99.90
2023-02-21T04:05:40.802Z,99.90
2023-02-21T04:08:07.550Z,99.90
2023-02-21T04:10:38.203Z,99.90
2023-02-21T04:13:13.876Z,99.90
2023-02-21T04:15:40.538Z,99.90
2023-02-21T04:18:07.219Z,99.90
2023-02-21T04:20:33.867Z,99.90
2023-02-21T04:23:03.598Z,99.90
2023-02-21T04:25:30.519Z,99.90
2023-02-21T04:27:57.151Z,99.90
2023-02-21T04:30:24.879Z,99.90
2023-02-21T04:32:51.689Z,99.90
2023-02-21T04:35:18.384Z,99.90
2023-02-21T04:37:45.179Z,99.90
2023-02-21T04:40:11.876Z,99.90
2023-02-21T04:42:38.748Z,99.90
2023-02-21T04:45:05.702Z,99.90
2023-02-21T04:47:32.369Z,99.90
2023-02-21T04:49:59.086Z,99.90
2023-02-21T04:52:25.772Z,99.90
2023-02-21T04:54:54.314Z,99.90
2023-02-21T04:57:21.025Z,99.90
2023-02-21T04:59:47.756Z,99.90
2023-02-21T05:02:14.542Z,99.90
2023-02-21T05:04:43.132Z,99.90
2023-02-21T05:07:09.843Z,99.90
2023-02-21T05:09:36.548Z,99.90
2023-02-21T05:12:03.316Z,99.90
2023-02-21T05:14:29.966Z,99.90
2023-02-21T05:16:56.609Z,99.90
2023-02-21T05:19:27.643Z,99.90
2023-02-21T05:21:55.896Z,99.90
2023-02-21T05:24:23.000Z,99.90
2023-02-21T05:26:50.086Z,99.90
2023-02-21T05:29:16.739Z,99.90
2023-02-21T05:31:43.425Z,99.90
2023-02-21T05:34:10.296Z,99.90
2023-02-21T05:36:37.029Z,99.90
2023-02-21T05:39:04.372Z,99.90
2023-02-21T05:41:31.084Z,99.90
2023-02-21T05:43:57.759Z,99.90
2023-02-21T05:46:28.913Z,99.90
2023-02-21T05:48:56.119Z,99.90
2023-02-21T05:51:23.304Z,99.90
2023-02-21T05:53:50.208Z,99.90
2023-02-21T05:56:17.261Z,99.90
2023-02-21T05:58:43.993Z,99.90
2023-02-21T06:01:10.757Z,99.90
2023-02-21T06:03:37.528Z,99.90
2023-02-21T06:06:04.347Z,99.90
2023-02-21T06:08:31.203Z,99.90
2023-02-21T06:11:26.090Z,99.90
2023-02-21T06:13:53.355Z,99.90
2023-02-21T06:16:20.180Z,99.90
2023-02-21T06:18:50.209Z,99.90
2023-02-21T06:21:17.040Z,99.90
2023-02-21T06:23:43.780Z,99.90
2023-02-21T06:26:10.535Z,99.90
2023-02-21T06:28:37.224Z,99.90
2023-02-21T06:31:05.005Z,99.90
2023-02-21T06:33:31.790Z,99.90
2023-02-21T06:35:58.665Z,99.90
2023-02-21T06:38:26.104Z,99.90
2023-02-21T06:40:52.758Z,99.90
2023-02-21T06:43:19.445Z,99.90
2023-02-21T06:45:46.113Z,99.90
2023-02-21T06:48:16.284Z,99.90
2023-02-21T06:50:42.981Z,99.90
2023-02-21T06:53:09.673Z,99.90
2023-02-21T06:55:36.335Z,99.90
2023-02-21T06:58:03.025Z,99.90
2023-02-21T07:00:29.710Z,99.90
2023-02-21T07:02:56.393Z,99.90
2023-02-21T07:05:23.333Z,99.90
2023-02-21T07:07:50.033Z,99.90
2023-02-21T07:10:16.840Z,99.90
2023-02-21T07:12:43.504Z,99.90
2023-02-21T07:15:10.216Z,99.90
2023-02-21T07:17:36.859Z,99.90
2023-02-21T07:20:04.750Z,99.90
2023-02-21T07:22:31.513Z,99.90
2023-02-21T07:24:58.172Z,99.90
2023-02-21T07:27:24.845Z,99.90
2023-02-21T07:29:51.504Z,99.90
2023-02-21T07:32:18.249Z,99.90
2023-02-21T07:34:45.240Z,99.90
2023-02-21T07:37:12.205Z,99.30
2023-02-21T07:39:38.941Z,98.60
2023-02-21T07:42:07.978Z,97.20
2023-02-21T07:44:34.895Z,96.10
2023-02-21T07:47:01.785Z,96.40
2023-02-21T07:49:28.459Z,96.90
2023-02-21T07:52:08.313Z,96.90
2023-02-21T07:54:36.449Z,96.70
2023-02-21T07:57:03.338Z,97.70
2023-02-21T07:59:52.067Z,96.90
2023-02-21T08:02:19.261Z,95.80
2023-02-21T08:04:50.065Z,93.70
2023-02-21T08:07:16.884Z,93.20
2023-02-21T08:09:43.717Z,95.20
2023-02-21T08:12:10.505Z,94.80
2023-02-21T08:14:37.342Z,92.40
2023-02-21T08:17:04.150Z,93.00
2023-02-21T08:19:31.180Z,90.90
2023-02-21T08:21:58.071Z,90.00
2023-02-21T08:24:24.905Z,88.40
2023-02-21T08:26:51.749Z,85.40
2023-02-21T08:29:18.634Z,87.20
2023-02-21T08:31:45.417Z,90.90
2023-02-21T08:34:12.569Z,90.90
2023-02-21T08:36:41.119Z,81.40
2023-02-21T08:39:08.556Z,82.40
2023-02-21T08:41:36.225Z,78.80
2023-02-21T08:44:02.875Z,77.10
2023-02-21T08:46:29.581Z,84.60
2023-02-21T08:48:56.350Z,80.80
2023-02-21T08:51:30.385Z,80.40
2023-02-21T08:53:57.097Z,79.30
2023-02-21T08:56:24.550Z,81.50
2023-02-21T08:58:51.516Z,74.40
2023-02-21T09:01:18.537Z,77.50
2023-02-21T09:03:45.378Z,76.90
2023-02-21T09:06:12.130Z,75.90
2023-02-21T09:08:40.661Z,74.50
2023-02-21T09:11:07.809Z,75.40
2023-02-21T09:13:34.521Z,76.60
2023-02-21T09:16:02.225Z,75.80
2023-02-21T09:18:29.595Z,71.90
2023-02-21T09:20:57.889Z,73.50
2023-02-21T09:23:29.347Z,69.90
2023-02-21T09:25:56.841Z,69.40
2023-02-21T09:28:24.206Z,67.40
2023-02-21T09:30:51.527Z,68.80
2023-02-21T09:33:19.115Z,70.00
2023-02-21T09:35:45.939Z,68.80
2023-02-21T09:38:12.794Z,66.10
2023-02-21T09:40:39.584Z,62.00
2023-02-21T09:43:11.158Z,66.60
2023-02-21T09:45:38.454Z,66.40
2023-02-21T09:48:08.025Z,65.10
2023-02-21T09:50:38.500Z,59.90
2023-02-21T09:53:05.378Z,58.50
2023-02-21T09:55:35.535Z,58.20
2023-02-21T09:58:02.652Z,56.70
2023-02-21T10:00:32.866Z,58.80
2023-02-21T10:03:09.425Z,54.50
2023-02-21T10:05:45.653Z,53.60
2023-02-21T10:08:44.965Z,53.10
2023-02-21T10:11:14.951Z,55.10
2023-02-21T10:13:46.061Z,54.70
2023-02-21T10:16:16.387Z,53.40
2023-02-21T10:18:52.145Z,54.80
2023-02-21T10:21:27.942Z,54.20
2023-02-21T10:23:57.994Z,55.70
2023-02-21T10:26:26.479Z,56.10
2023-02-21T10:28:56.415Z,55.70
2023-02-21T10:31:26.887Z,54.20
2023-02-21T10:33:53.825Z,55.50
2023-02-21T10:36:22.207Z,55.30
2023-02-21T10:38:56.941Z,56.00
2023-02-21T10:41:25.355Z,54.90
2023-02-21T10:43:55.215Z,54.80
2023-02-21T10:46:25.797Z,54.60
2023-02-21T10:48:53.898Z,53.70
2023-02-21T10:51:34.796Z,55.40
2023-02-21T10:54:21.094Z,55.00
2023-02-21T10:56:49.025Z,53.60
2023-02-21T10:59:26.277Z,53.30
2023-02-21T11:01:53.578Z,54.20
2023-02-21T11:04:20.230Z,53.50
2023-02-21T11:06:49.008Z,54.20
2023-02-21T11:09:27.875Z,53.30
2023-02-21T11:12:13.187Z,53.40
2023-02-21T11:14:39.874Z,51.10
2023-02-21T11:17:19.869Z,52.80
2023-02-21T11:19:54.003Z,51.00
2023-02-21T11:22:22.768Z,48.40
2023-02-21T11:24:49.447Z,47.20
2023-02-21T11:27:17.017Z,47.60
2023-02-21T11:29:45.305Z,49.00
2023-02-21T11:32:13.261Z,47.10
2023-02-21T11:34:46.252Z,47.70
2023-02-21T11:37:12.953Z,47.80
2023-02-21T11:39:41.426Z,48.20
2023-02-21T11:42:34.436Z,46.60
2023-02-21T11:45:12.841Z,45.90
2023-02-21T11:47:50.899Z,43.70
2023-02-21T11:50:25.894Z,44.60
2023-02-21T11:52:55.751Z,44.70
2023-02-21T11:55:26.256Z,43.70
2023-02-21T11:57:53.260Z,44.20
2023-02-21T12:00:26.004Z,43.90
2023-02-21T12:03:18.058Z,46.40
2023-02-21T12:05:50.153Z,43.50
2023-02-21T12:08:16.832Z,42.80
2023-02-21T12:10:58.860Z,42.10
2023-02-21T12:13:44.425Z,41.00
2023-02-21T12:16:11.111Z,41.70
2023-02-21T12:18:43.932Z,41.60
2023-02-21T12:21:29.512Z,40.70
2023-02-21T12:24:02.394Z,41.90
2023-02-21T12:26:47.845Z,43.70
2023-02-21T12:29:44.736Z,42.00
2023-02-21T12:32:27.375Z,40.30
2023-02-21T12:35:14.877Z,42.20
2023-02-21T12:37:46.705Z,43.40
2023-02-21T12:40:39.622Z,44.50
2023-02-21T12:43:32.718Z,43.20
2023-02-21T12:46:18.947Z,44.90
2023-02-21T12:48:51.721Z,45.70
2023-02-21T12:51:19.851Z,45.10
2023-02-21T12:54:01.607Z,45.70
2023-02-21T12:56:49.557Z,45.10
2023-02-21T12:59:31.464Z,44.50
2023-02-21T13:02:19.792Z,44.20
2023-02-21T13:04:48.277Z,45.10
2023-02-21T13:07:25.527Z,45.60
2023-02-21T13:09:55.352Z,43.20
2023-02-21T13:12:28.273Z,42.60
2023-02-21T13:14:57.322Z,42.40
2023-02-21T13:17:24.349Z,44.10
2023-02-21T13:19:54.633Z,43.80
2023-02-21T13:22:24.845Z,42.90
2023-02-21T13:25:10.402Z,43.80
2023-02-21T13:27:37.060Z,42.40
2023-02-21T13:30:23.515Z,42.20
2023-02-21T13:32:54.968Z,43.30
2023-02-21T13:35:26.802Z,42.20
2023-02-21T13:37:54.319Z,42.60
2023-02-21T13:40:25.662Z,42.10
2023-02-21T13:43:00.372Z,43.60
2023-02-21T13:45:27.365Z,43.20
2023-02-21T13:47:54.011Z,44.10
2023-02-21T13:50:39.298Z,43.00
2023-02-21T13:53:09.368Z,43.60
2023-02-21T13:55:36.577Z,43.30
2023-02-21T13:58:05.264Z,42.70
2023-02-21T14:00:32.037Z,43.00
2023-02-21T14:02:58.702Z,41.50
2023-02-21T14:05:25.981Z,41.40
2023-02-21T14:07:56.895Z,41.20
2023-02-21T14:10:25.592Z,40.80
2023-02-21T14:12:57.064Z,41.40
2023-02-21T14:15:23.727Z,40.80
2023-02-21T14:17:51.720Z,41.60
2023-02-21T14:20:20.463Z,41.20
2023-02-21T14:22:49.750Z,41.60
2023-02-21T14:25:18.708Z,42.50
2023-02-21T14:27:45.816Z,41.80
2023-02-21T14:30:12.656Z,41.80
2023-02-21T14:32:47.119Z,43.50
2023-02-21T14:35:14.271Z,42.20
2023-02-21T14:37:45.395Z,41.30
2023-02-21T14:40:11.996Z,42.80
2023-02-21T14:43:02.215Z,40.50
2023-02-21T14:45:44.665Z,40.60
2023-02-21T14:48:25.859Z,42.90
2023-02-21T14:50:52.476Z,43.50
2023-02-21T14:53:28.283Z,44.60
2023-02-21T14:56:18.641Z,43.10
2023-02-21T14:59:03.819Z,42.80
2023-02-21T15:01:51.344Z,41.40
2023-02-21T15:04:21.176Z,42.00
2023-02-21T15:07:06.414Z,42.10
2023-02-21T15:09:33.322Z,42.40
2023-02-21T15:12:00.083Z,41.80
2023-02-21T15:14:28.400Z,42.40
2023-02-21T15:16:56.529Z,44.40
2023-02-21T15:19:26.258Z,45.00
2023-02-21T15:22:11.755Z,44.20
2023-02-21T15:24:38.456Z,45.80
2023-02-21T15:27:12.269Z,44.40
2023-02-21T15:29:39.879Z,44.10
2023-02-21T15:32:07.026Z,44.00
2023-02-21T15:34:40.289Z,45.60
2023-02-21T15:37:13.060Z,46.50
2023-02-21T15:39:40.788Z,47.00
2023-02-21T15:42:09.030Z,45.80
2023-02-21T15:44:42.597Z,47.10
2023-02-21T15:47:11.245Z,49.10
2023-02-21T15:49:40.319Z,48.50
2023-02-21T15:52:07.402Z,47.60
2023-02-21T15:54:35.516Z,50.60
2023-02-21T15:57:02.646Z,48.90
2023-02-21T15:59:30.165Z,51.70
2023-02-21T16:02:15.181Z,53.90
2023-02-21T16:04:46.360Z,58.00
2023-02-21T16:07:37.411Z,56.00
2023-02-21T16:10:06.356Z,57.50
2023-02-21T16:12:35.094Z,58.40
2023-02-21T16:15:04.807Z,57.80
2023-02-21T16:17:32.758Z,58.80
2023-02-21T16:20:13.384Z,61.50
2023-02-21T16:23:06.375Z,62.10
2023-02-21T16:25:27.596Z,65.40
2023-02-21T16:27:56.034Z,68.40
2023-02-21T16:30:30.136Z,66.70
2023-02-21T16:33:03.863Z,67.60
2023-02-21T16:35:31.140Z,68.10
2023-02-21T16:37:58.565Z,66.30
2023-02-21T16:40:35.141Z,68.10
2023-02-21T16:43:02.968Z,68.60
2023-02-21T16:45:30.706Z,67.80
2023-02-21T16:47:59.072Z,68.70
2023-02-21T16:50:25.716Z,69.00
2023-02-21T16:52:52.429Z,69.30
2023-02-21T16:55:19.946Z,70.30
2023-02-21T16:57:47.936Z,69.70
2023-02-21T17:00:17.856Z,70.40
2023-02-21T17:02:44.605Z,70.50
2023-02-21T17:05:11.967Z,73.90
2023-02-21T17:07:38.649Z,72.20
2023-02-21T17:10:05.546Z,71.70
2023-02-21T17:12:32.236Z,72.40
2023-02-21T17:14:58.916Z,73.60
2023-02-21T17:17:25.601Z,73.60
2023-02-21T17:19:52.289Z,75.40
2023-02-21T17:22:18.977Z,75.90
2023-02-21T17:24:45.729Z,76.70
2023-02-21T17:27:12.393Z,77.10
2023-02-21T17:29:39.241Z,77.50
2023-02-21T17:32:07.164Z,80.10
2023-02-21T17:34:34.402Z,80.40
2023-02-21T17:37:01.274Z,80.20
2023-02-21T17:39:28.037Z,82.30
2023-02-21T17:41:54.728Z,83.40
2023-02-21T17:44:21.553Z,84.00
2023-02-21T17:46:50.690Z,83.30
2023-02-21T17:49:18.071Z,82.40
2023-02-21T17:51:44.856Z,83.20
2023-02-21T17:54:11.556Z,83.00
2023-02-21T17:56:38.197Z,82.50
2023-02-21T17:59:04.979Z,81.50
2023-02-21T18:01:31.898Z,81.80
2023-02-21T18:04:01.215Z,83.20
2023-02-21T18:06:28.668Z,84.60
2023-02-21T18:08:55.566Z,85.50
2023-02-21T18:11:23.641Z,85.80
2023-02-21T18:13:50.741Z,84.70
2023-02-21T18:16:17.668Z,85.50
2023-02-21T18:19:13.312Z,86.30
2023-02-21T18:21:41.578Z,85.20
2023-02-21T18:24:09.092Z,85.10
2023-02-21T18:26:36.205Z,85.70
2023-02-21T18:29:03.596Z,86.30
2023-02-21T18:31:30.381Z,86.90
2023-02-21T18:33:57.362Z,86.60
2023-02-21T18:36:24.250Z,88.20
2023-02-21T18:38:51.049Z,87.20
2023-02-21T18:41:20.722Z,86.60
2023-02-21T18:43:47.529Z,87.30
2023-02-21T18:46:15.729Z,87.40
2023-02-21T18:48:43.773Z,87.00
2023-02-21T18:51:11.409Z,86.60
2023-02-21T18:53:38.613Z,87.50
2023-02-21T18:56:10.613Z,88.60
2023-02-21T18:58:38.209Z,88.10
2023-02-21T19:01:05.464Z,88.60
2023-02-21T19:03:32.376Z,88.10
2023-02-21T19:06:00.046Z,88.10
2023-02-21T19:08:26.813Z,87.30
2023-02-21T19:10:53.895Z,88.30
2023-02-21T19:13:20.692Z,86.70
2023-02-21T19:15:47.386Z,86.20
2023-02-21T19:18:14.108Z,84.90
2023-02-21T19:20:43.259Z,84.10
2023-02-21T19:23:10.208Z,85.30
2023-02-21T19:25:36.962Z,85.10
2023-02-21T19:28:11.826Z,84.00
2023-02-21T19:30:39.028Z,87.30
2023-02-21T19:33:13.466Z,86.80
2023-02-21T19:35:40.382Z,85.80
2023-02-21T19:38:07.989Z,87.00
2023-02-21T19:40:35.558Z,89.50
2023-02-21T19:43:02.418Z,90.00
2023-02-21T19:45:29.243Z,90.20
2023-02-21T19:47:55.933Z,90.30
2023-02-21T19:50:22.804Z,91.50
2023-02-21T19:52:54.539Z,91.80
2023-02-21T19:55:21.344Z,91.60
2023-02-21T19:57:48.079Z,91.10
2023-02-21T20:00:15.195Z,91.10
2023-02-21T20:02:44.420Z,91.50
2023-02-21T20:05:13.957Z,92.00
2023-02-21T20:07:41.020Z,92.20
2023-02-21T20:10:08.217Z,92.50
2023-02-21T20:12:34.857Z,92.60
2023-02-21T20:15:01.535Z,92.30
2023-02-21T20:17:28.177Z,91.70
2023-02-21T20:19:54.828Z,91.00
2023-02-21T20:22:21.734Z,91.70
2023-02-21T20:24:48.549Z,92.70
2023-02-21T20:27:15.801Z,92.30
2023-02-21T20:29:42.548Z,93.50
2023-02-21T20:32:09.279Z,94.10
2023-02-21T20:34:38.427Z,93.60
2023-02-21T20:37:05.090Z,93.90
2023-02-21T20:39:31.905Z,93.60
2023-02-21T20:41:59.561Z,93.40
2023-02-21T20:44:26.560Z,93.00
2023-02-21T20:46:53.814Z,92.70
2023-02-21T20:49:21.432Z,93.90
2023-02-21T20:51:48.468Z,94.50
2023-02-21T20:54:19.884Z,93.60
2023-02-21T20:56:47.584Z,93.10
2023-02-21T20:59:24.879Z,94.30
2023-02-21T21:01:51.585Z,95.40
2023-02-21T21:04:19.415Z,95.20
2023-02-21T21:06:46.577Z,95.70
2023-02-21T21:09:17.760Z,96.00
2023-02-21T21:11:45.206Z,95.90
2023-02-21T21:14:14.460Z,95.70
2023-02-21T21:16:42.258Z,95.80
2023-02-21T21:19:08.992Z,95.90
2023-02-21T21:21:37.861Z,95.60
2023-02-21T21:24:07.364Z,95.60
2023-02-21T21:26:34.089Z,95.40
2023-02-21T21:29:01.509Z,96.00
2023-02-21T21:31:28.284Z,97.50
2023-02-21T21:33:56.449Z,97.60
2023-02-21T21:36:23.209Z,97.50
2023-02-21T21:38:49.847Z,97.30
2023-02-21T21:41:16.843Z,97.30
2023-02-21T21:43:44.081Z,98.00
2023-02-21T21:46:11.644Z,97.60
2023-02-21T21:48:41.110Z,97.90
2023-02-21T21:51:09.466Z,97.30
2023-02-21T21:53:38.836Z,96.60
2023-02-21T21:56:06.505Z,96.00
2023-02-21T21:58:36.067Z,97.50
2023-02-21T22:01:05.472Z,98.60
2023-02-21T22:03:32.362Z,99.50
2023-02-21T22:06:00.628Z,99.30
2023-02-21T22:08:28.485Z,99.00
2023-02-21T22:10:55.153Z,99.10
2023-02-21T22:13:21.921Z,99.70
2023-02-21T22:15:48.807Z,98.70
2023-02-21T22:18:19.444Z,98.40
2023-02-21T22:20:49.779Z,97.10
2023-02-21T22:23:18.188Z,98.30
2023-02-21T22:25:44.902Z,98.50
2023-02-21T22:28:13.193Z,99.40
2023-02-21T22:30:40.391Z,99.30
2023-02-21T22:33:08.315Z,99.10
2023-02-21T22:35:35.099Z,99.90
2023-02-21T22:38:02.170Z,99.90
2023-02-21T22:40:29.904Z,99.90
2023-02-21T22:42:59.320Z,99.90
2023-02-21T22:45:26.785Z,99.90
2023-02-21T22:47:57.832Z,99.90
2023-02-21T22:50:25.352Z,99.90
2023-02-21T22:52:59.490Z,99.90
2023-02-21T22:55:27.206Z,99.90
2023-02-21T22:57:54.766Z,99.90
2023-02-21T23:00:24.323Z,99.90
2023-02-21T23:02:51.961Z,99.90
2023-02-21T23:05:20.685Z,99.90
2023-02-21T23:07:48.703Z,99.90
2023-02-21T23:10:16.673Z,99.90
2023-02-21T23:12:44.456Z,99.90
2023-02-21T23:15:12.208Z,99.90
2023-02-21T23:17:38.852Z,99.20
2023-02-21T23:20:17.757Z,99.90
2023-02-21T23:22:45.156Z,99.90
2023-02-21T23:25:19.649Z,99.90
2023-02-21T23:27:47.513Z,99.90
2023-02-21T23:30:16.499Z,99.90
2023-02-21T23:32:47.235Z,99.90
2023-02-21T23:35:17.461Z,99.90
2023-02-21T23:37:44.927Z,99.90
2023-02-21T23:40:16.608Z,99.90
2023-02-21T23:42:44.190Z,99.90
2023-02-21T23:45:11.589Z,99.90
2023-02-21T23:47:42.039Z,99.90
2023-02-21T23:50:17.824Z,99.90
2023-02-21T23:52:48.460Z,99.90
2023-02-21T23:55:15.867Z,99.90
2023-02-21T23:57:43.533Z,99.90
